This is the latest recevied weather packets stored in our database for station/object K3JSE-2. If no packets are shown the sender has not sent any weather packets the latest 1 day(s).
| Time | Temp. | Humidity | Pressure | Rain* | Wind** | Luminosity | Snow |
|---|---|---|---|---|---|---|---|
| 1778027728 | 21.67° C | 46% | 1009.2 hPa | 0 mm | 0 m/s | - | - |
| 1778027433 | 21.67° C | 45% | 1009.2 hPa | 0 mm | 0 m/s | - | - |
| 1778027263 | 22.22° C | 45% | 1009.2 hPa | 0 mm | 0 m/s | - | - |
| 1778027138 | 22.22° C | 44% | 1009.2 hPa | 0 mm | 0.45 m/s, 163° | - | - |
| 1778026873 | 22.22° C | 44% | 1009.1 hPa | 0 mm | 0 m/s | - | - |
| 1778026619 | 22.22° C | 44% | 1009.1 hPa | 0 mm | 0.89 m/s, 278° | - | - |
| 1778026605 | 22.22° C | 44% | 1009.1 hPa | 0 mm | 0.89 m/s, 277° | - | - |
| 1778026341 | 22.22° C | 43% | 1009 hPa | 0 mm | 0 m/s | - | - |
| 1778026098 | 22.22° C | 43% | 1008.9 hPa | 0 mm | 0.45 m/s, 219° | - | - |
| 1778025840 | 22.78° C | 43% | 1008.9 hPa | 0 mm | 0.89 m/s, 341° | - | - |
| 1778025818 | 22.78° C | 43% | 1008.9 hPa | 0 mm | 0.45 m/s, 346° | - | - |
| 1778025533 | 22.78° C | 42% | 1009 hPa | 0 mm | 0 m/s | - | - |
| 1778025238 | 22.78° C | 43% | 1008.9 hPa | 0 mm | 0.45 m/s, 288° | - | - |
| 1778025174 | 22.78° C | 42% | 1009 hPa | 0 mm | 0.89 m/s, 282° | - | - |
| 1778024968 | 22.78° C | 43% | 1008.9 hPa | 0 mm | 0.45 m/s, 258° | - | - |
| 1778024718 | 22.78° C | 43% | 1008.9 hPa | 0 mm | 1.34 m/s, 268° | - | - |
| 1778024473 | 22.78° C | 43% | 1008.8 hPa | 0 mm | 0 m/s | - | - |
| 1778024439 | 22.78° C | 42% | 1008.8 hPa | 0 mm | 0.45 m/s, 265° | - | - |
| 1778024221 | 22.78° C | 42% | 1008.7 hPa | 0 mm | 0 m/s | - | - |
| 1778023981 | 23.33° C | 42% | 1008.8 hPa | 0 mm | 0 m/s | - | - |
| 1778023711 | 23.33° C | 42% | 1008.7 hPa | 0 mm | 0.45 m/s, 248° | - | - |
| 1778023704 | 23.33° C | 42% | 1008.7 hPa | 0 mm | 0.45 m/s, 253° | - | - |
| 1778023451 | 23.33° C | 41% | 1008.7 hPa | 0 mm | 0.89 m/s, 257° | - | - |
| 1778023198 | 23.33° C | 41% | 1008.8 hPa | 0 mm | 0 m/s | - | - |
| 1778022929 | 23.33° C | 41% | 1008.8 hPa | 0 mm | 1.34 m/s, 263° | - | - |
* Rain latest hour (hover to see other rain measurements)
** Current wind speed in m/s (hover to see current wind gust speed)